Time;durP1;ratioP1;P1;durP2;ratioP2;P2;SDS_P1;SDS_P2;PMS_P1;PMS_P2;Temp;Humidity;BMP_temperature;BMP_pressure;BME280_temperature;BME280_humidity;BME280_pressure;Samples;Min_cycle;Max_cycle;Signal;HPM_P1;HPM_P2
2022/03/04 00:01:48;;;;;;;34.63;16.50;;;4.40;99.90;;;;;;4912832;29;20168;-75
2022/03/04 00:04:13;;;;;;;28.63;15.65;;;4.40;99.90;;;;;;4913443;29;20027;-75
2022/03/04 00:06:39;;;;;;;28.65;16.08;;;4.30;99.90;;;;;;4913121;29;20064;-75
2022/03/04 00:09:05;;;;;;;26.88;15.02;;;4.30;99.90;;;;;;4913104;29;20051;-75
2022/03/04 00:11:30;;;;;;;26.77;15.50;;;4.30;99.90;;;;;;4912960;29;20193;-76
2022/03/04 00:13:56;;;;;;;26.30;15.35;;;4.30;99.90;;;;;;4913228;29;20032;-75
2022/03/04 00:16:22;;;;;;;29.33;16.33;;;4.30;99.90;;;;;;4913232;29;20035;-75
2022/03/04 00:19:06;;;;;;;29.80;15.60;;;4.20;99.90;;;;;;4912926;29;20036;-75
2022/03/04 00:21:33;;;;;;;29.05;16.00;;;4.20;99.90;;;;;;4912984;29;20036;-76
2022/03/04 00:24:00;;;;;;;30.42;16.48;;;4.10;99.90;;;;;;4912512;29;20054;-76
2022/03/04 00:26:25;;;;;;;29.65;15.38;;;4.10;99.90;;;;;;4907796;29;20040;-75
2022/03/04 00:28:51;;;;;;;29.48;15.95;;;4.10;99.90;;;;;;4912525;29;20035;-75
2022/03/04 00:31:16;;;;;;;29.95;16.77;;;4.10;99.90;;;;;;4912838;29;20024;-75
2022/03/04 00:33:42;;;;;;;29.60;16.17;;;4.00;99.90;;;;;;4912588;29;20049;-75
2022/03/04 00:36:08;;;;;;;27.88;16.40;;;3.90;99.90;;;;;;4912995;29;20064;-75
2022/03/04 00:38:33;;;;;;;30.63;16.98;;;3.90;99.90;;;;;;4912332;29;20123;-76
2022/03/04 00:40:59;;;;;;;28.60;16.13;;;3.90;99.90;;;;;;4913322;29;20446;-75
2022/03/04 00:43:24;;;;;;;29.67;16.73;;;3.90;99.90;;;;;;4912472;29;20047;-75
2022/03/04 00:45:51;;;;;;;32.13;17.77;;;3.80;99.90;;;;;;4908084;29;20131;-75
2022/03/04 00:48:17;;;;;;;30.30;17.08;;;3.80;99.90;;;;;;4911074;29;20073;-75
2022/03/04 00:50:42;;;;;;;29.35;17.05;;;3.70;99.90;;;;;;4912887;29;20079;-75
2022/03/04 00:53:08;;;;;;;29.42;16.38;;;3.70;99.90;;;;;;4913022;29;20431;-75
2022/03/04 00:55:37;;;;;;;30.52;17.08;;;3.70;99.90;;;;;;4912487;29;20493;-75
2022/03/04 00:58:07;;;;;;;34.28;17.05;;;3.70;99.90;;;;;;4911410;29;20035;-75
2022/03/04 01:00:34;;;;;;;33.65;17.30;;;3.60;99.90;;;;;;4912380;29;20040;-75
2022/03/04 01:03:00;;;;;;;28.95;16.60;;;3.60;99.90;;;;;;4912562;29;20028;-75
2022/03/04 01:05:26;;;;;;;31.95;17.30;;;3.60;99.90;;;;;;4912402;29;20410;-75
2022/03/04 01:07:52;;;;;;;31.63;17.52;;;3.60;99.90;;;;;;4912045;29;20100;-76
2022/03/04 01:10:17;;;;;;;33.30;18.05;;;3.50;99.90;;;;;;4911351;29;20087;-75
2022/03/04 01:12:43;;;;;;;30.20;16.73;;;3.50;99.90;;;;;;4912655;29;20033;-75
2022/03/04 01:15:09;;;;;;;34.05;18.25;;;3.50;99.90;;;;;;4910287;29;20102;-75
2022/03/04 01:17:35;;;;;;;33.22;18.20;;;3.50;99.90;;;;;;4912433;29;20156;-76
2022/03/04 01:20:02;;;;;;;33.03;18.02;;;3.50;99.90;;;;;;4912172;29;20144;-75
2022/03/04 01:22:27;;;;;;;35.40;18.50;;;3.40;99.90;;;;;;4912448;29;20039;-75
2022/03/04 01:24:53;;;;;;;29.52;17.02;;;3.40;99.90;;;;;;4912329;29;20032;-76
2022/03/04 01:27:19;;;;;;;31.15;17.75;;;3.40;99.90;;;;;;4912471;29;20044;-75
2022/03/04 01:29:45;;;;;;;32.45;18.40;;;3.30;99.90;;;;;;4911905;29;20044;-75
2022/03/04 01:32:11;;;;;;;31.55;17.58;;;3.40;99.90;;;;;;4912427;29;20030;-75
2022/03/04 01:34:37;;;;;;;36.15;18.35;;;3.30;99.90;;;;;;4912790;29;20032;-75
2022/03/04 01:37:04;;;;;;;33.97;18.98;;;3.30;99.90;;;;;;4915904;29;20455;-75
2022/03/04 01:39:29;;;;;;;34.38;18.60;;;3.30;99.90;;;;;;4915589;29;20443;-76
2022/03/04 01:41:55;;;;;;;34.15;17.88;;;3.30;99.90;;;;;;4915916;29;20036;-73
2022/03/04 01:44:21;;;;;;;35.55;18.88;;;3.20;99.90;;;;;;4915532;29;20540;-75
2022/03/04 01:46:46;;;;;;;34.92;18.83;;;3.20;99.90;;;;;;4916083;29;20025;-75
2022/03/04 01:49:13;;;;;;;35.70;18.88;;;3.20;99.90;;;;;;4915502;29;20060;-75
2022/03/04 01:51:38;;;;;;;32.67;18.33;;;3.20;99.90;;;;;;4914620;29;20047;-75
2022/03/04 01:54:04;;;;;;;34.63;18.73;;;3.10;99.90;;;;;;4915362;29;20048;-75
2022/03/04 01:56:30;;;;;;;38.70;19.58;;;3.10;99.90;;;;;;4915603;29;20056;-75
2022/03/04 01:58:56;;;;;;;35.75;19.25;;;3.10;99.90;;;;;;4913922;29;20375;-75
2022/03/04 02:01:21;;;;;;;38.75;19.38;;;3.10;99.90;;;;;;4915922;29;20091;-75
2022/03/04 02:03:47;;;;;;;36.20;18.48;;;3.10;99.90;;;;;;4915215;29;20028;-75
2022/03/04 02:06:13;;;;;;;37.78;18.85;;;3.00;99.90;;;;;;4915299;29;20028;-75
2022/03/04 02:08:39;;;;;;;37.88;18.77;;;3.00;99.90;;;;;;4915357;29;20545;-75
2022/03/04 02:11:04;;;;;;;34.10;18.05;;;3.00;99.90;;;;;;4914161;29;20100;-75
2022/03/04 02:13:31;;;;;;;33.33;18.33;;;3.00;99.90;;;;;;4915535;29;20032;-75
2022/03/04 02:15:56;;;;;;;32.97;18.42;;;3.00;99.90;;;;;;4915143;29;20028;-75
2022/03/04 02:18:22;;;;;;;34.72;17.67;;;3.00;99.90;;;;;;4915076;29;20501;-75
2022/03/04 02:20:50;;;;;;;38.72;20.30;;;3.00;99.90;;;;;;4914877;29;20024;-76
2022/03/04 02:23:18;;;;;;;34.85;18.60;;;3.00;99.90;;;;;;4915246;29;20497;-75
2022/03/04 02:25:50;;;;;;;38.15;19.08;;;2.90;99.90;;;;;;4915011;29;20429;-75
2022/03/04 02:28:21;;;;;;;37.33;19.60;;;2.90;99.90;;;;;;4915117;29;20408;-76
2022/03/04 02:30:46;;;;;;;36.92;18.95;;;2.90;99.90;;;;;;4914709;29;20082;-75
2022/03/04 02:33:12;;;;;;;35.55;19.17;;;2.90;99.90;;;;;;4913592;29;20085;-75
2022/03/04 02:35:40;;;;;;;35.45;19.20;;;2.80;99.90;;;;;;4913312;29;20028;-75
2022/03/04 02:38:06;;;;;;;36.38;19.20;;;2.80;99.90;;;;;;4914289;29;20035;-75
2022/03/04 02:40:32;;;;;;;40.38;18.83;;;2.80;99.90;;;;;;4914780;29;20040;-74
2022/03/04 02:42:57;;;;;;;39.65;19.13;;;2.80;99.90;;;;;;4915208;29;20035;-75
2022/03/04 02:45:23;;;;;;;37.13;18.90;;;2.80;99.90;;;;;;4924399;29;20106;-75
2022/03/04 02:47:49;;;;;;;36.75;19.85;;;2.80;99.90;;;;;;4899676;29;20036;-75
2022/03/04 02:50:15;;;;;;;37.95;19.38;;;2.80;99.90;;;;;;4909222;29;20135;-75
2022/03/04 02:52:40;;;;;;;39.42;20.02;;;2.80;99.90;;;;;;4911455;29;20052;-75
2022/03/04 02:55:10;;;;;;;35.60;19.63;;;2.80;99.90;;;;;;4896258;29;20194;-75
2022/03/04 02:57:36;;;;;;;38.03;18.90;;;2.80;99.90;;;;;;4912051;29;20370;-75
2022/03/04 03:00:04;;;;;;;35.83;18.90;;;2.80;99.90;;;;;;4896483;29;20557;-75
2022/03/04 03:02:29;;;;;;;40.47;19.17;;;2.70;99.90;;;;;;4913399;29;20046;-75
2022/03/04 03:04:55;;;;;;;36.88;19.20;;;2.70;99.90;;;;;;4899446;29;20140;-75
2022/03/04 03:07:20;;;;;;;37.47;19.60;;;2.70;99.90;;;;;;4914436;29;20024;-75
2022/03/04 03:09:46;;;;;;;38.05;20.10;;;2.70;99.90;;;;;;4914168;29;20032;-75
2022/03/04 03:12:11;;;;;;;40.65;19.42;;;2.70;99.90;;;;;;4914393;29;20346;-75
2022/03/04 03:14:37;;;;;;;35.97;19.63;;;2.70;99.90;;;;;;4897433;29;20411;-75
2022/03/04 03:17:03;;;;;;;39.72;20.50;;;2.70;99.90;;;;;;4912693;29;20044;-75
2022/03/04 03:19:28;;;;;;;37.22;19.75;;;2.60;99.90;;;;;;4914136;29;20132;-75
2022/03/04 03:21:54;;;;;;;38.22;19.67;;;2.60;99.90;;;;;;4899114;29;20039;-75
2022/03/04 03:24:19;;;;;;;40.45;19.77;;;2.60;99.90;;;;;;4913866;29;20036;-76
2022/03/04 03:26:45;;;;;;;37.17;20.33;;;2.60;99.90;;;;;;4912598;29;20119;-75
2022/03/04 03:29:10;;;;;;;37.35;18.90;;;2.60;99.90;;;;;;4914054;29;20059;-75
2022/03/04 03:31:36;;;;;;;39.95;20.05;;;2.60;99.90;;;;;;4913363;29;20051;-75
2022/03/04 03:34:02;;;;;;;39.25;19.90;;;2.60;99.90;;;;;;4913788;29;20027;-75
2022/03/04 03:36:27;;;;;;;35.80;19.42;;;2.50;99.90;;;;;;4913408;29;20110;-76
2022/03/04 03:38:53;;;;;;;37.85;19.48;;;2.50;99.90;;;;;;4913512;29;20044;-76
2022/03/04 03:41:18;;;;;;;37.65;19.55;;;2.50;99.90;;;;;;4913687;29;20060;-75
2022/03/04 03:43:45;;;;;;;39.25;20.77;;;2.50;99.90;;;;;;4913371;29;20110;-75
2022/03/04 03:46:10;;;;;;;38.03;20.48;;;2.50;99.90;;;;;;4913070;29;20032;-75
2022/03/04 03:48:39;;;;;;;35.95;19.23;;;2.50;99.90;;;;;;4913338;29;20088;-75
2022/03/04 03:51:05;;;;;;;36.13;19.70;;;2.50;99.90;;;;;;4913544;29;20090;-75
2022/03/04 03:53:31;;;;;;;38.10;19.73;;;2.50;99.90;;;;;;4913552;29;20099;-75
2022/03/04 03:55:56;;;;;;;39.03;20.15;;;2.50;99.90;;;;;;4913061;29;20063;-75
2022/03/04 03:58:22;;;;;;;36.92;19.85;;;2.50;99.90;;;;;;4913330;29;20035;-75
2022/03/04 04:00:48;;;;;;;43.83;20.55;;;2.40;99.90;;;;;;4912763;29;20040;-75
2022/03/04 04:03:14;;;;;;;40.63;19.98;;;2.40;99.90;;;;;;4913220;29;20359;-75
2022/03/04 04:05:40;;;;;;;39.30;20.02;;;2.40;99.90;;;;;;4913120;29;20032;-75
2022/03/04 04:08:05;;;;;;;41.85;20.88;;;2.40;99.90;;;;;;4911916;29;20024;-75
2022/03/04 04:10:31;;;;;;;42.17;20.23;;;2.40;99.90;;;;;;4913495;29;20110;-76
2022/03/04 04:12:57;;;;;;;42.90;20.95;;;2.40;99.90;;;;;;4913084;29;20119;-75
2022/03/04 04:15:23;;;;;;;40.78;20.77;;;2.40;99.90;;;;;;4903138;29;20031;-75
2022/03/04 04:17:48;;;;;;;42.75;21.02;;;2.40;99.90;;;;;;4912954;29;20431;-75
2022/03/04 04:20:14;;;;;;;38.03;20.60;;;2.30;99.90;;;;;;4912980;29;20103;-75
2022/03/04 04:22:40;;;;;;;40.22;20.35;;;2.30;99.90;;;;;;4913375;29;20111;-75
2022/03/04 04:25:06;;;;;;;39.47;21.30;;;2.30;99.90;;;;;;4912484;29;20510;-75
2022/03/04 04:27:32;;;;;;;40.13;20.90;;;2.30;99.90;;;;;;4912676;29;20124;-75
2022/03/04 04:29:58;;;;;;;42.03;21.20;;;2.30;99.90;;;;;;4912565;29;20028;-75
2022/03/04 04:32:23;;;;;;;40.17;20.70;;;2.30;99.90;;;;;;4913127;29;20031;-75
2022/03/04 04:34:49;;;;;;;42.13;20.25;;;2.30;99.90;;;;;;4912438;29;20048;-75
2022/03/04 04:37:14;;;;;;;45.55;21.58;;;2.30;99.90;;;;;;4913223;29;20107;-75
2022/03/04 04:39:40;;;;;;;44.55;21.85;;;2.30;99.90;;;;;;4912698;29;20040;-75
2022/03/04 04:42:06;;;;;;;39.95;20.17;;;2.30;99.90;;;;;;4912757;29;20481;-75
2022/03/04 04:44:31;;;;;;;40.03;20.13;;;2.30;99.90;;;;;;4912154;29;20042;-75
2022/03/04 04:46:57;;;;;;;42.60;21.30;;;2.30;99.90;;;;;;4912928;29;20036;-75
2022/03/04 04:49:23;;;;;;;41.65;21.67;;;2.30;99.90;;;;;;4912821;29;20056;-75
2022/03/04 04:51:49;;;;;;;43.63;20.42;;;2.30;99.90;;;;;;4912388;29;20653;-75
2022/03/04 04:54:15;;;;;;;44.60;21.05;;;2.30;99.90;;;;;;4912545;29;20107;-75
2022/03/04 04:56:40;;;;;;;44.10;21.10;;;2.30;99.90;;;;;;4912291;29;20048;-75
2022/03/04 04:59:06;;;;;;;46.65;21.77;;;2.30;99.90;;;;;;4912882;29;20510;-75
2022/03/04 05:01:31;;;;;;;42.53;21.05;;;2.30;99.90;;;;;;4911889;29;20103;-75
2022/03/04 05:03:57;;;;;;;42.45;22.00;;;2.30;99.90;;;;;;4912464;29;20040;-75
2022/03/04 05:06:23;;;;;;;44.50;20.77;;;2.30;99.90;;;;;;4912609;29;20028;-75
2022/03/04 05:08:49;;;;;;;39.58;19.77;;;2.30;99.90;;;;;;4911929;29;20047;-76
2022/03/04 05:11:15;;;;;;;42.67;21.23;;;2.20;99.90;;;;;;4915025;29;20033;-75
2022/03/04 05:13:40;;;;;;;42.72;21.30;;;2.20;99.90;;;;;;4915264;29;20059;-75
2022/03/04 05:16:06;;;;;;;47.67;21.15;;;2.20;99.90;;;;;;4914467;29;20134;-75
2022/03/04 05:18:32;;;;;;;44.08;21.45;;;2.20;99.90;;;;;;4915209;29;20051;-75
2022/03/04 05:20:58;;;;;;;44.63;21.85;;;2.20;99.90;;;;;;4916586;29;20506;-75
2022/03/04 05:26:08;;;;;;;45.87;21.57;;;2.20;99.90;;;;;;4913210;29;20035;-74
2022/03/04 05:28:34;;;;;;;43.63;21.67;;;2.20;99.90;;;;;;4913068;29;20024;-74
2022/03/04 05:30:59;;;;;;;43.08;21.10;;;2.20;99.90;;;;;;4913896;29;20529;-76
2022/03/04 05:33:25;;;;;;;45.05;20.77;;;2.20;99.90;;;;;;4910157;29;20036;-73
2022/03/04 05:35:50;;;;;;;44.92;22.52;;;2.10;99.90;;;;;;4913002;29;20020;-74
2022/03/04 05:38:16;;;;;;;39.03;20.65;;;2.10;99.90;;;;;;4914251;29;20016;-74
2022/03/04 05:40:42;;;;;;;43.53;21.65;;;2.10;99.90;;;;;;4913242;29;20028;-74
2022/03/04 05:43:08;;;;;;;43.00;21.38;;;2.10;99.90;;;;;;4913773;29;20282;-74
2022/03/04 05:45:33;;;;;;;46.97;21.85;;;2.10;99.90;;;;;;4916405;29;20048;-74
2022/03/04 05:47:59;;;;;;;47.20;21.20;;;2.10;99.90;;;;;;4915936;29;20556;-74
2022/03/04 05:50:24;;;;;;;41.53;21.08;;;2.00;99.90;;;;;;4917726;29;20044;-74
2022/03/04 05:52:50;;;;;;;47.20;21.52;;;2.00;99.90;;;;;;4915981;29;20032;-74
2022/03/04 05:55:16;;;;;;;46.45;21.27;;;2.00;99.90;;;;;;4915219;29;20054;-74
2022/03/04 05:57:41;;;;;;;42.50;21.88;;;2.00;99.90;;;;;;4916392;29;20393;-73
2022/03/04 06:00:08;;;;;;;43.80;20.98;;;2.00;99.90;;;;;;4914689;29;20032;-74
2022/03/04 06:02:33;;;;;;;45.35;22.00;;;1.90;99.90;;;;;;4917575;29;20226;-74
2022/03/04 06:04:59;;;;;;;44.25;21.70;;;1.90;99.90;;;;;;4910730;29;20377;-75
2022/03/04 06:07:25;;;;;;;42.33;21.40;;;1.90;99.90;;;;;;4913257;29;20045;-73
2022/03/04 06:09:50;;;;;;;42.47;21.33;;;1.90;99.90;;;;;;4914300;29;20463;-74
2022/03/04 06:12:16;;;;;;;44.63;22.67;;;1.90;99.90;;;;;;4913775;29;20020;-75
2022/03/04 06:14:42;;;;;;;46.78;21.60;;;1.80;99.90;;;;;;4911607;29;20032;-75
2022/03/04 06:17:07;;;;;;;42.78;22.00;;;1.80;99.90;;;;;;4912089;29;20020;-75
2022/03/04 06:19:33;;;;;;;43.60;21.25;;;1.80;99.90;;;;;;4912357;29;20402;-73
2022/03/04 06:21:58;;;;;;;43.63;22.08;;;1.70;99.90;;;;;;4914039;29;20028;-73
2022/03/04 06:24:24;;;;;;;45.90;22.45;;;1.70;99.90;;;;;;4914163;29;20038;-76
2022/03/04 06:26:49;;;;;;;47.53;21.58;;;1.70;99.90;;;;;;4914611;29;20036;-73
2022/03/04 06:29:15;;;;;;;44.08;22.52;;;1.70;99.90;;;;;;4914468;29;20044;-73
2022/03/04 06:31:41;;;;;;;48.03;21.88;;;1.60;99.90;;;;;;4915402;29;20382;-73
2022/03/04 06:34:07;;;;;;;43.70;22.05;;;1.60;99.90;;;;;;4914837;29;20367;-74
2022/03/04 06:36:32;;;;;;;40.70;22.08;;;1.60;99.90;;;;;;4914940;29;20500;-74
2022/03/04 06:38:58;;;;;;;46.03;22.50;;;1.60;99.90;;;;;;4914693;29;20087;-74
2022/03/04 06:41:23;;;;;;;46.78;22.77;;;1.60;99.90;;;;;;4915174;29;20442;-74
2022/03/04 06:43:49;;;;;;;44.30;22.17;;;1.50;99.90;;;;;;4914660;29;20082;-74
2022/03/04 06:46:16;;;;;;;45.70;22.20;;;1.50;99.90;;;;;;4913845;29;20036;-74
2022/03/04 06:48:41;;;;;;;45.55;21.85;;;1.50;99.90;;;;;;4914912;29;20020;-74
2022/03/04 06:51:07;;;;;;;45.20;21.83;;;1.50;99.90;;;;;;4914838;29;20395;-73
2022/03/04 06:53:33;;;;;;;53.45;22.33;;;1.50;99.90;;;;;;4913452;29;20020;-74
2022/03/04 06:55:59;;;;;;;43.10;21.70;;;1.60;99.90;;;;;;4914209;29;20135;-74
2022/03/04 06:58:25;;;;;;;43.35;21.95;;;1.60;99.90;;;;;;4915011;29;20059;-74
2022/03/04 07:00:51;;;;;;;45.25;21.50;;;1.60;99.90;;;;;;4913613;29;20036;-74
2022/03/04 07:03:16;;;;;;;48.08;23.77;;;1.60;99.90;;;;;;4914493;29;20701;-74
2022/03/04 07:05:43;;;;;;;51.85;24.08;;;1.60;99.90;;;;;;4914430;29;20171;-75
2022/03/04 07:08:11;;;;;;;46.38;22.40;;;1.60;99.90;;;;;;4914392;29;20036;-74
2022/03/04 07:10:38;;;;;;;49.88;23.33;;;1.60;99.90;;;;;;4914145;29;20040;-74
2022/03/04 07:13:04;;;;;;;47.00;23.25;;;1.70;99.90;;;;;;4911499;29;20080;-74
2022/03/04 07:15:30;;;;;;;49.40;23.40;;;1.70;99.90;;;;;;4913510;29;20088;-74
2022/03/04 07:17:56;;;;;;;49.35;23.48;;;1.70;99.90;;;;;;4913080;29;20020;-76
2022/03/04 07:20:21;;;;;;;48.42;23.45;;;1.70;99.90;;;;;;4914385;29;20040;-74
2022/03/04 07:22:47;;;;;;;44.03;23.35;;;1.70;99.90;;;;;;4914535;29;20028;-74
2022/03/04 07:25:15;;;;;;;48.92;24.13;;;1.80;99.90;;;;;;4914384;29;20031;-74
2022/03/04 07:27:41;;;;;;;48.58;23.73;;;1.80;99.90;;;;;;4914518;29;20035;-74
2022/03/04 07:30:09;;;;;;;45.70;23.42;;;1.80;99.90;;;;;;4914061;29;20028;-74
2022/03/04 07:32:35;;;;;;;48.13;24.10;;;1.80;99.90;;;;;;4913684;29;20160;-74
2022/03/04 07:35:01;;;;;;;45.47;23.27;;;1.90;99.90;;;;;;4912283;29;20040;-74
2022/03/04 07:37:27;;;;;;;48.20;23.92;;;1.90;99.90;;;;;;4913118;29;20028;-75
2022/03/04 07:39:52;;;;;;;47.58;23.25;;;1.90;99.90;;;;;;4913039;29;20036;-74
2022/03/04 07:42:18;;;;;;;48.13;23.15;;;2.00;99.90;;;;;;4912729;29;20031;-75
2022/03/04 07:44:43;;;;;;;49.50;23.38;;;2.00;99.90;;;;;;4914674;29;20043;-76
2022/03/04 07:47:09;;;;;;;51.17;24.05;;;2.00;99.90;;;;;;4912535;29;20298;-74
2022/03/04 07:49:35;;;;;;;44.55;22.88;;;2.10;99.90;;;;;;4913394;29;20032;-74
2022/03/04 07:52:00;;;;;;;47.05;23.20;;;2.10;99.90;;;;;;4913328;29;20028;-74
2022/03/04 07:54:26;;;;;;;47.63;23.77;;;2.20;99.90;;;;;;4913234;29;20028;-73
2022/03/04 07:56:52;;;;;;;45.60;23.55;;;2.20;99.90;;;;;;4913348;29;20032;-74
2022/03/04 07:59:21;;;;;;;46.92;23.60;;;2.30;99.90;;;;;;4913790;29;20036;-76
2022/03/04 08:01:47;;;;;;;48.17;23.98;;;2.30;99.90;;;;;;4913522;29;20434;-74
2022/03/04 08:04:13;;;;;;;45.97;22.70;;;2.40;99.90;;;;;;4913129;29;20028;-74
2022/03/04 08:06:39;;;;;;;49.67;22.60;;;2.40;99.90;;;;;;4912959;29;20752;-75
2022/03/04 08:09:05;;;;;;;49.35;23.38;;;2.50;99.90;;;;;;4912415;29;20032;-74
2022/03/04 08:11:30;;;;;;;50.95;23.00;;;2.60;99.90;;;;;;4913253;29;20059;-74
2022/03/04 08:13:56;;;;;;;47.78;24.13;;;2.60;99.90;;;;;;4913339;29;20039;-74
2022/03/04 08:16:24;;;;;;;51.30;24.48;;;2.60;99.90;;;;;;4913161;29;20319;-74
2022/03/04 08:18:49;;;;;;;50.92;24.92;;;2.70;99.90;;;;;;4911787;29;20064;-74
2022/03/04 08:21:15;;;;;;;49.67;24.52;;;2.80;99.90;;;;;;4912900;29;20334;-74
2022/03/04 08:23:41;;;;;;;44.97;24.10;;;2.90;99.90;;;;;;4913362;29;20060;-74
2022/03/04 08:26:06;;;;;;;49.83;23.90;;;2.90;99.90;;;;;;4913328;29;20031;-74
2022/03/04 08:28:33;;;;;;;48.22;24.10;;;3.00;99.90;;;;;;4913464;29;20032;-74
2022/03/04 08:31:00;;;;;;;44.35;22.67;;;3.00;99.90;;;;;;4913322;29;20400;-74
2022/03/04 08:33:27;;;;;;;48.92;22.55;;;3.10;99.90;;;;;;4913404;29;20032;-75
2022/03/04 08:35:53;;;;;;;46.33;22.75;;;3.20;99.90;;;;;;4912932;29;20087;-74
2022/03/04 08:38:19;;;;;;;44.28;22.58;;;3.30;99.90;;;;;;4913118;29;20024;-74
2022/03/04 08:40:44;;;;;;;44.00;22.75;;;3.40;99.90;;;;;;4913040;29;20043;-75
2022/03/04 08:43:10;;;;;;;43.72;22.52;;;3.50;99.90;;;;;;4912883;29;20611;-75
2022/03/04 08:45:35;;;;;;;46.33;23.25;;;3.60;99.90;;;;;;4912887;29;20036;-74
2022/03/04 08:48:06;;;;;;;42.75;21.65;;;3.70;99.90;;;;;;4912776;29;20020;-73
2022/03/04 08:50:35;;;;;;;45.92;22.83;;;3.80;99.90;;;;;;4913148;29;20028;-74
2022/03/04 08:53:03;;;;;;;41.60;21.88;;;3.90;99.90;;;;;;4927130;29;20055;-73
2022/03/04 08:55:30;;;;;;;42.28;22.50;;;4.10;99.90;;;;;;4927055;29;20059;-75
2022/03/04 08:57:57;;;;;;;41.53;21.65;;;4.20;99.90;;;;;;4913335;29;20028;-74
2022/03/04 09:00:23;;;;;;;42.58;21.45;;;4.30;99.90;;;;;;4913065;29;20068;-73
2022/03/04 09:02:49;;;;;;;42.17;22.23;;;4.50;99.90;;;;;;4913442;29;20454;-74
2022/03/04 09:05:15;;;;;;;41.45;21.60;;;4.60;99.90;;;;;;4912908;29;20039;-73
2022/03/04 09:07:40;;;;;;;38.67;21.50;;;4.70;99.90;;;;;;4912521;29;20035;-72
2022/03/04 09:10:07;;;;;;;38.78;21.40;;;4.90;99.90;;;;;;4912617;29;20039;-72
2022/03/04 09:12:33;;;;;;;39.97;21.77;;;5.00;99.90;;;;;;4912609;29;20529;-72
2022/03/04 09:14:58;;;;;;;39.97;21.23;;;5.20;99.90;;;;;;4912558;29;20024;-72
2022/03/04 09:17:24;;;;;;;40.85;21.38;;;5.30;99.90;;;;;;4911599;29;20096;-72
2022/03/04 09:19:49;;;;;;;38.65;21.27;;;5.50;99.90;;;;;;4912473;29;20047;-72
2022/03/04 09:22:15;;;;;;;42.53;20.67;;;5.60;99.90;;;;;;4912454;29;20564;-72
2022/03/04 09:24:41;;;;;;;40.30;22.02;;;5.80;99.90;;;;;;4912584;29;20055;-72
2022/03/04 09:27:07;;;;;;;36.05;20.02;;;6.00;99.90;;;;;;4910736;29;20031;-72
2022/03/04 09:29:33;;;;;;;35.78;20.58;;;6.10;99.90;;;;;;4909425;29;20890;-72
2022/03/04 09:31:59;;;;;;;38.03;21.08;;;6.30;99.90;;;;;;4910852;29;20099;-73
2022/03/04 09:34:24;;;;;;;43.13;22.30;;;6.40;99.90;;;;;;4911939;29;20065;-72
2022/03/04 09:36:50;;;;;;;39.28;22.08;;;6.50;99.90;;;;;;4910741;29;20152;-72
2022/03/04 09:39:16;;;;;;;41.70;20.20;;;6.60;99.90;;;;;;4910241;29;20047;-72
2022/03/04 09:41:45;;;;;;;38.85;20.60;;;6.70;99.90;;;;;;4910052;29;20087;-72
2022/03/04 09:44:14;;;;;;;36.47;20.50;;;6.70;99.90;;;;;;4908091;29;20361;-72
2022/03/04 09:46:41;;;;;;;38.40;21.17;;;6.80;99.90;;;;;;4907879;29;20473;-72
2022/03/04 09:49:14;;;;;;;41.35;21.70;;;6.90;99.90;;;;;;4908590;29;20091;-72
2022/03/04 09:51:39;;;;;;;39.65;20.73;;;7.00;99.90;;;;;;4908900;29;20024;-72
2022/03/04 09:54:05;;;;;;;39.90;20.65;;;7.10;99.90;;;;;;4908909;29;20079;-72
2022/03/04 09:56:30;;;;;;;39.22;20.90;;;7.10;99.90;;;;;;4910376;29;20099;-72
2022/03/04 09:58:56;;;;;;;37.08;20.52;;;7.10;99.90;;;;;;4911213;29;20036;-72
2022/03/04 10:01:22;;;;;;;36.30;21.08;;;7.10;99.90;;;;;;4914501;29;20020;-72
2022/03/04 10:03:53;;;;;;;40.53;21.20;;;7.10;99.90;;;;;;4914275;29;20198;-72
2022/03/04 10:06:20;;;;;;;40.55;20.50;;;7.20;99.90;;;;;;4915005;29;20094;-71
2022/03/04 10:08:48;;;;;;;41.53;21.30;;;7.20;99.90;;;;;;4914308;29;20039;-74
2022/03/04 10:11:29;;;;;;;40.80;21.75;;;7.30;99.90;;;;;;4915677;29;20390;-73
2022/03/04 10:13:56;;;;;;;38.25;21.13;;;7.40;99.90;;;;;;4915328;29;20526;-74
2022/03/04 10:16:35;;;;;;;37.42;21.35;;;7.30;99.90;;;;;;4915594;29;20111;-74
2022/03/04 10:19:18;;;;;;;39.30;21.77;;;7.40;99.90;;;;;;4915512;29;20048;-74
2022/03/04 10:21:57;;;;;;;36.47;20.88;;;7.40;99.90;;;;;;4915317;29;20028;-74
2022/03/04 10:24:36;;;;;;;37.45;21.02;;;7.50;99.90;;;;;;4915524;29;20039;-74
2022/03/04 10:27:08;;;;;;;39.35;22.08;;;7.70;99.90;;;;;;4915421;29;20036;-75
2022/03/04 10:29:39;;;;;;;40.03;21.60;;;7.70;99.90;;;;;;4915050;29;20031;-73
2022/03/04 10:32:20;;;;;;;36.75;20.27;;;7.80;99.90;;;;;;4915200;29;20079;-72
2022/03/04 10:35:01;;;;;;;32.95;20.10;;;7.90;99.90;;;;;;4915118;29;20521;-72
2022/03/04 10:37:54;;;;;;;39.55;21.35;;;8.00;99.90;;;;;;4915693;29;20504;-73
2022/03/04 10:40:21;;;;;;;35.15;20.02;;;8.20;99.90;;;;;;4913565;29;20040;-74
2022/03/04 10:42:53;;;;;;;36.63;21.50;;;8.30;99.90;;;;;;4914829;29;20070;-73
2022/03/04 10:45:26;;;;;;;34.63;20.38;;;8.50;99.90;;;;;;4915226;29;20032;-73
2022/03/04 10:48:07;;;;;;;36.97;19.65;;;8.60;99.90;;;;;;4914836;29;20036;-73
2022/03/04 10:50:44;;;;;;;36.60;20.75;;;8.70;99.90;;;;;;4914086;29;20028;-73
2022/03/04 10:53:15;;;;;;;34.60;20.30;;;8.70;99.90;;;;;;4911360;29;20494;-74
2022/03/04 10:55:41;;;;;;;35.33;19.83;;;8.90;99.90;;;;;;4913452;29;20048;-74
2022/03/04 10:58:22;;;;;;;34.67;19.50;;;8.90;99.90;;;;;;4913210;29;20024;-73
2022/03/04 11:00:53;;;;;;;33.38;19.63;;;9.10;99.90;;;;;;4913499;29;20039;-73
2022/03/04 11:03:26;;;;;;;32.30;20.15;;;9.10;99.90;;;;;;4913273;29;20012;-74
2022/03/04 11:05:54;;;;;;;35.63;19.35;;;9.20;99.90;;;;;;4913203;29;20560;-73
2022/03/04 11:08:23;;;;;;;33.75;20.27;;;9.30;99.90;;;;;;4911999;29;20020;-75
2022/03/04 11:10:50;;;;;;;30.98;18.55;;;9.50;99.90;;;;;;4913355;29;20086;-73
2022/03/04 11:13:16;;;;;;;33.55;19.77;;;9.60;99.90;;;;;;4913233;29;20070;-73
2022/03/04 11:15:42;;;;;;;32.25;19.00;;;9.70;99.90;;;;;;4913007;29;20044;-74
2022/03/04 11:18:10;;;;;;;35.10;19.67;;;9.90;99.90;;;;;;4912766;29;20024;-74
2022/03/04 11:20:36;;;;;;;37.53;20.15;;;9.90;99.90;;;;;;4913585;29;20032;-73
2022/03/04 11:23:03;;;;;;;35.03;19.23;;;9.90;99.70;;;;;;4913884;29;20028;-73
2022/03/04 11:25:42;;;;;;;33.08;19.35;;;9.90;99.80;;;;;;4912621;29;20095;-73
2022/03/04 11:28:14;;;;;;;34.60;20.27;;;10.00;99.20;;;;;;4913247;29;20107;-73
2022/03/04 11:30:45;;;;;;;34.45;20.67;;;10.10;98.80;;;;;;4912828;29;20091;-73
2022/03/04 11:33:17;;;;;;;32.78;18.77;;;10.20;99.20;;;;;;4912775;29;20035;-74
2022/03/04 11:35:42;;;;;;;36.55;21.13;;;10.30;98.70;;;;;;4912618;29;20016;-73
2022/03/04 11:38:11;;;;;;;33.03;19.52;;;10.30;97.90;;;;;;4912387;29;20462;-74
2022/03/04 11:40:48;;;;;;;34.90;20.17;;;10.40;97.40;;;;;;4912415;29;20036;-73
2022/03/04 11:43:18;;;;;;;37.63;21.52;;;10.50;97.20;;;;;;4913312;29;20111;-73
2022/03/04 11:45:43;;;;;;;36.00;20.48;;;10.50;96.70;;;;;;4910293;29;20107;-73
2022/03/04 11:48:12;;;;;;;31.55;19.85;;;10.60;96.80;;;;;;4912391;29;20107;-73
2022/03/04 11:50:48;;;;;;;32.10;19.75;;;10.70;96.60;;;;;;4912241;29;20024;-73
2022/03/04 11:53:15;;;;;;;36.55;20.70;;;10.70;96.20;;;;;;4912676;29;20091;-74
2022/03/04 11:56:01;;;;;;;36.08;20.45;;;10.80;95.80;;;;;;4912292;29;20107;-75
2022/03/04 11:58:26;;;;;;;;;;;10.80;95.40;;;;;;4911921;29;20502;-75
2022/03/04 12:00:52;;;;;;;32.05;19.25;;;10.80;94.60;;;;;;4911234;29;19943;-75
2022/03/04 12:03:18;;;;;;;32.80;20.13;;;10.90;95.20;;;;;;4912923;29;20028;-76
2022/03/04 12:05:48;;;;;;;31.88;19.80;;;11.00;94.70;;;;;;4911513;29;20044;-76
2022/03/04 12:08:14;;;;;;;34.50;19.65;;;11.00;94.00;;;;;;4913959;29;20032;-76
2022/03/04 12:10:45;;;;;;;34.78;20.15;;;11.00;93.40;;;;;;4913813;29;20032;-76
2022/03/04 12:13:20;;;;;;;36.40;20.38;;;11.00;93.70;;;;;;4913604;29;20032;-76
2022/03/04 12:16:09;;;;;;;31.67;20.10;;;11.20;93.80;;;;;;4913914;29;20074;-76
2022/03/04 12:18:37;;;;;;;36.72;20.70;;;11.20;93.70;;;;;;4913712;29;20056;-77
2022/03/04 12:21:06;;;;;;;35.08;20.65;;;11.30;93.60;;;;;;4913225;29;20056;-77
2022/03/04 12:23:39;;;;;;;30.35;19.02;;;11.40;93.30;;;;;;4912018;29;20339;-76
2022/03/04 12:26:05;;;;;;;32.30;20.05;;;11.50;92.80;;;;;;4913342;29;20035;-76
2022/03/04 12:28:34;;;;;;;32.20;19.42;;;11.60;92.50;;;;;;4913123;29;20510;-76
2022/03/04 12:31:03;;;;;;;36.08;19.58;;;11.60;91.90;;;;;;4913354;29;20226;-76
2022/03/04 12:33:35;;;;;;;33.85;19.90;;;11.60;91.20;;;;;;4914023;29;20451;-76
2022/03/04 12:36:07;;;;;;;35.22;19.98;;;11.70;91.00;;;;;;4914752;29;20728;-72
2022/03/04 12:39:02;;;;;;;36.50;19.85;;;11.70;91.10;;;;;;4921561;29;20024;-72